Time;durP1;ratioP1;P1;durP2;ratioP2;P2;SDS_P1;SDS_P2;PMS_P1;PMS_P2;Temp;Humidity;BMP_temperature;BMP_pressure;BME280_temperature;BME280_humidity;BME280_pressure;Samples;Min_cycle;Max_cycle;Signal;HPM_P1;HPM_P2
2022/04/27 00:04:52;679601.00;2.27;1171.88;0.00;0.00;0.62;;;;;13.70;1.00;;;;;;2281166;61;1440;-88
2022/04/27 01:10:38;1497265.00;4.99;2637.97;138149.00;0.46;239.38;;;;;14.50;1.00;;;;;;2417884;39;3539;-91
2022/04/27 01:56:20;1224384.00;4.08;2134.37;0.00;0.00;0.62;;;;;14.40;1.00;;;;;;803611;56;3622;-88
2022/04/27 05:45:11;2627653.00;8.76;5002.84;675174.00;2.25;1164.21;;;;;18.60;1.00;;;;;;2278742;61;1435;-86
2022/04/27 06:30:07;910172.00;3.03;1573.99;0.00;0.00;0.62;;;;;17.80;1.00;;;;;;2472403;40;3459;-86
2022/04/27 06:42:34;395729.00;1.32;682.46;0.00;0.00;0.62;;;;;22.10;1.00;;;;;;2273675;61;1424;-86
2022/04/27 06:45:01;17765.00;0.06;31.40;0.00;0.00;0.62;;;;;23.90;1.00;;;;;;2272102;61;954;-86
2022/04/27 06:47:29;157408.00;0.52;272.57;0.00;0.00;0.62;;;;;25.10;1.00;;;;;;2272430;61;989;-86
2022/04/27 06:49:56;212625.00;0.71;367.65;0.00;0.00;0.62;;;;;25.20;1.00;;;;;;2272194;61;1491;-85
2022/04/27 06:52:23;131704.00;0.44;228.27;0.00;0.00;0.62;;;;;24.60;1.00;;;;;;2272415;61;935;-85
2022/04/27 06:54:51;389581.00;1.30;671.89;0.00;0.00;0.62;;;;;23.50;1.00;;;;;;2272491;61;2156;-87
2022/04/27 06:57:18;41983.00;0.14;73.32;0.00;0.00;0.62;;;;;22.70;1.00;;;;;;2272575;61;988;-87
2022/04/27 06:59:45;188876.00;0.63;326.77;0.00;0.00;0.62;;;;;21.90;1.00;;;;;;2272589;61;1903;-87
2022/04/27 07:02:15;170649.00;0.57;295.38;21582.00;0.07;38.01;;;;;21.00;1.00;;;;;;2272554;61;1134;-88
2022/04/27 07:04:51;93513.00;0.31;162.37;0.00;0.00;0.62;;;;;20.50;1.00;;;;;;2272548;61;1575;-86
2022/04/27 07:07:18;0.00;0.00;0.62;0.00;0.00;0.62;;;;;19.90;1.00;;;;;;2272459;61;1189;-86
2022/04/27 07:09:45;26218.00;0.09;46.04;0.00;0.00;0.62;;;;;19.70;1.00;;;;;;2272356;61;1497;-88
2022/04/27 07:12:13;114417.00;0.38;198.45;0.00;0.00;0.62;;;;;19.30;1.00;;;;;;2272541;61;1150;-87
2022/04/27 07:14:40;16638.00;0.06;29.45;0.00;0.00;0.62;;;;;18.90;1.00;;;;;;2272544;61;1017;-88
2022/04/27 07:17:07;0.00;0.00;0.62;0.00;0.00;0.62;;;;;18.60;1.00;;;;;;2272512;61;1138;-86
2022/04/27 07:19:33;25907.00;0.09;45.50;0.00;0.00;0.62;;;;;18.60;1.00;;;;;;2272407;61;2004;-87
2022/04/27 07:22:02;127938.00;0.43;221.77;0.00;0.00;0.62;;;;;19.00;1.00;;;;;;2272442;61;1051;-84
2022/04/27 07:24:30;185683.00;0.62;321.28;12045.00;0.04;21.49;;;;;19.50;1.00;;;;;;2272536;61;1466;-86
2022/04/27 07:26:57;1041372.00;3.47;1805.89;79761.00;0.27;138.62;;;;;19.30;1.00;;;;;;2272493;61;1696;-87
2022/04/27 07:29:24;642911.00;2.14;1108.37;17518.00;0.06;30.97;;;;;19.40;1.00;;;;;;2272326;61;1295;-86
2022/04/27 07:31:52;437674.00;1.46;754.58;13593.00;0.05;24.17;;;;;19.30;1.00;;;;;;2272450;61;1675;-87
2022/04/27 07:34:19;738965.00;2.46;1274.88;19880.00;0.07;35.06;;;;;19.10;1.00;;;;;;2272475;61;1547;-86
2022/04/27 07:36:46;718906.00;2.40;1240.04;0.00;0.00;0.62;;;;;18.80;1.00;;;;;;2272551;61;1075;-87
2022/04/27 07:39:14;1242916.00;4.14;2168.01;69687.00;0.23;121.22;;;;;18.60;1.00;;;;;;2272442;61;1691;-87
2022/04/27 07:41:41;848801.00;2.83;1466.37;68325.00;0.23;118.87;;;;;17.80;1.00;;;;;;2272365;61;1934;-86
2022/04/27 07:44:08;1085235.00;3.62;1884.04;56091.00;0.19;97.72;;;;;17.40;1.00;;;;;;2272614;61;1013;-88
2022/04/27 07:46:35;612955.00;2.04;1056.59;8275.00;0.03;14.96;;;;;17.40;1.00;;;;;;2272457;61;1029;-86
2022/04/27 07:49:02;936084.00;3.12;1619.59;88092.00;0.29;153.01;;;;;17.70;1.00;;;;;;2272390;61;1103;-88
2022/04/27 07:51:29;1435036.00;4.78;2521.46;134363.00;0.45;232.85;;;;;18.20;1.00;;;;;;2272294;61;1280;-87
2022/04/27 07:53:56;1442096.00;4.81;2534.63;201397.00;0.67;348.33;;;;;18.00;1.00;;;;;;2272531;61;1089;-87
2022/04/27 07:56:24;1580341.00;5.27;2795.23;135562.00;0.45;234.92;;;;;19.30;1.00;;;;;;2272393;61;1176;-88
2022/04/27 07:58:51;1280166.00;4.27;2235.85;189188.00;0.63;327.31;;;;;21.00;1.00;;;;;;2272449;61;978;-87
2022/04/27 08:01:18;1086774.00;3.62;1886.79;151031.00;0.50;261.58;;;;;21.90;1.00;;;;;;2272412;61;2028;-89
2022/04/27 08:03:45;1168292.00;3.89;2033.00;140012.00;0.47;242.59;;;;;23.20;1.00;;;;;;2272294;61;1913;-86
2022/04/27 08:06:12;1050651.00;3.50;1822.39;152758.00;0.51;264.56;;;;;22.30;1.00;;;;;;2272399;61;1075;-87
2022/04/27 08:08:39;223148.00;0.74;385.76;80817.00;0.27;140.45;;;;;21.70;1.00;;;;;;2272324;61;1550;-86
2022/04/27 08:11:07;368419.00;1.23;635.52;96504.00;0.32;167.54;;;;;22.50;1.00;;;;;;2272294;61;1697;-87
2022/04/27 08:13:35;211012.00;0.70;364.88;78840.00;0.26;137.03;;;;;22.60;1.00;;;;;;2272277;61;1080;-86
2022/04/27 08:16:02;274096.00;0.91;473.39;79951.00;0.27;138.95;;;;;22.10;1.00;;;;;;2272408;61;983;-88
2022/04/27 08:18:29;328258.00;1.09;566.49;118225.00;0.39;205.02;;;;;22.00;1.00;;;;;;2272343;61;1094;-88
2022/04/27 08:21:15;241519.00;0.81;417.36;80601.00;0.27;140.08;;;;;22.50;1.00;;;;;;2272196;61;1923;-87
2022/04/27 08:23:44;1456393.00;4.85;2561.33;190671.00;0.64;329.86;;;;;21.60;1.00;;;;;;2272204;61;1450;-89
2022/04/27 08:26:11;1264708.00;4.22;2207.66;140430.00;0.47;243.31;;;;;21.80;1.00;;;;;;2272323;61;1008;-88
2022/04/27 08:28:41;846301.00;2.82;1462.00;77224.00;0.26;134.24;;;;;22.80;1.00;;;;;;2272266;61;930;-88
2022/04/27 08:31:09;120648432.00;402.16;71141944.00;175601.00;0.59;303.91;;;;;22.70;1.00;;;;;;2272244;61;2332;-87
2022/04/27 08:33:37;261702.00;0.87;452.08;80838.00;0.27;140.48;;;;;21.50;1.00;;;;;;2272189;61;1105;-87
2022/04/27 08:36:04;281780.00;0.94;486.60;81960.00;0.27;142.42;;;;;20.60;1.00;;;;;;2272085;61;1726;-87
2022/04/27 08:38:34;292384.00;0.97;504.83;78029.00;0.26;135.63;;;;;20.00;1.00;;;;;;2272289;61;1449;-88
2022/04/27 08:41:01;288959.00;0.96;498.94;83302.00;0.28;144.74;;;;;19.00;1.00;;;;;;2271678;61;2004;-87
2022/04/27 08:43:28;279932.00;0.93;483.42;78555.00;0.26;136.54;;;;;18.10;1.00;;;;;;2272803;61;1238;-87
2022/04/27 08:46:01;167209.00;0.56;289.46;77755.00;0.26;135.16;;;;;17.60;1.00;;;;;;2272984;61;1070;-87
2022/04/27 08:48:29;189752.00;0.63;328.28;84770.00;0.28;147.28;;;;;16.80;1.00;;;;;;2272930;61;1048;-88
2022/04/27 08:50:56;227798.00;0.76;393.76;84582.00;0.28;146.95;;;;;17.10;1.00;;;;;;2272944;61;1329;-88
2022/04/27 08:53:24;292245.00;0.97;504.59;79158.00;0.26;137.58;;;;;17.10;1.00;;;;;;2272823;61;1850;-86
2022/04/27 08:55:53;199083.00;0.66;344.35;81412.00;0.27;141.48;;;;;18.30;1.00;;;;;;2272817;61;1260;-87
2022/04/27 08:58:22;105846.00;0.35;183.66;7158.00;0.02;13.03;;;;;18.80;1.00;;;;;;2272827;61;1160;-88
2022/04/27 09:00:49;26100.00;0.09;45.83;0.00;0.00;0.62;;;;;19.10;1.00;;;;;;2272702;61;1919;-86
2022/04/27 09:03:28;125183.00;0.42;217.02;0.00;0.00;0.62;;;;;18.80;1.00;;;;;;2272745;61;1459;-88
2022/04/27 09:05:59;169248.00;0.56;292.97;91542.00;0.31;158.97;;;;;17.10;1.00;;;;;;2272810;61;1134;-88
2022/04/27 09:08:27;277304.00;0.92;478.90;120191.00;0.40;208.41;;;;;16.10;1.00;;;;;;2272688;61;1498;-88
2022/04/27 09:11:16;190180.00;0.63;329.02;86879.00;0.29;150.92;;;;;16.30;1.00;;;;;;2272790;61;2235;-89
2022/04/27 09:13:48;188822.00;0.63;326.68;74292.00;0.25;129.18;;;;;16.40;1.00;;;;;;2272750;61;1091;-89
2022/04/27 09:16:15;59435.00;0.20;103.50;0.00;0.00;0.62;;;;;16.80;1.00;;;;;;2272636;61;1447;-88
2022/04/27 09:22:03;92107.00;0.31;159.95;0.00;0.00;0.62;;;;;17.00;1.00;;;;;;2272730;61;1973;-87
2022/04/27 09:24:46;11580.00;0.04;20.69;0.00;0.00;0.62;;;;;17.50;1.00;;;;;;2272288;61;2335;-87
2022/04/27 09:27:18;228987.00;0.76;395.81;75026.00;0.25;130.44;;;;;17.60;1.00;;;;;;2272441;61;1043;-85
2022/04/27 09:29:56;203700.00;0.68;352.29;77653.00;0.26;134.98;;;;;18.00;1.00;;;;;;2272614;61;1325;-88
2022/04/27 09:32:23;274874.00;0.92;474.72;84487.00;0.28;146.79;;;;;18.10;1.00;;;;;;2272720;61;2077;-87
2022/04/27 09:34:52;394374.00;1.31;680.13;82752.00;0.28;143.79;;;;;18.30;1.00;;;;;;2272651;61;1485;-88
2022/04/27 09:37:21;228220.00;0.76;394.49;81569.00;0.27;141.75;;;;;18.70;1.00;;;;;;2272623;61;1153;-84
2022/04/27 09:40:01;263835.00;0.88;455.74;78604.00;0.26;136.63;;;;;19.20;1.00;;;;;;2272592;61;1363;-86
2022/04/27 09:42:31;308257.00;1.03;532.11;83187.00;0.28;144.54;;;;;18.70;1.00;;;;;;2272478;61;1471;-88
2022/04/27 09:45:15;330975.00;1.10;571.16;85109.00;0.28;147.86;;;;;18.60;1.00;;;;;;2272545;61;1216;-88
2022/04/27 09:47:47;148901.00;0.50;257.91;0.00;0.00;0.62;;;;;18.40;1.00;;;;;;2272576;61;1118;-88
2022/04/27 09:50:15;36391.00;0.12;63.64;0.00;0.00;0.62;;;;;17.80;1.00;;;;;;2272556;61;1423;-87
2022/04/27 09:52:44;262339.00;0.87;453.17;0.00;0.00;0.62;;;;;17.40;1.00;;;;;;2272517;61;940;-87
2022/04/27 09:55:11;43389.00;0.14;75.75;0.00;0.00;0.62;;;;;16.80;1.00;;;;;;2272455;61;1606;-86
2022/04/27 09:57:41;0.00;0.00;0.62;0.00;0.00;0.62;;;;;17.30;1.00;;;;;;2272665;61;1100;-88
2022/04/27 10:00:12;9507.00;0.03;17.10;0.00;0.00;0.62;;;;;18.00;1.00;;;;;;2272445;61;1915;-87
2022/04/27 10:02:43;0.00;0.00;0.62;0.00;0.00;0.62;;;;;17.10;1.00;;;;;;2272592;61;929;-86
2022/04/27 10:05:10;0.00;0.00;0.62;0.00;0.00;0.62;;;;;16.50;1.00;;;;;;2272564;61;1128;-88
2022/04/27 10:07:39;0.00;0.00;0.62;0.00;0.00;0.62;;;;;16.60;1.00;;;;;;2272566;61;1138;-88
2022/04/27 10:10:07;36049.00;0.12;63.05;0.00;0.00;0.62;;;;;16.70;1.00;;;;;;2272528;61;1407;-86
2022/04/27 10:12:38;40277.00;0.13;70.37;0.00;0.00;0.62;;;;;17.50;1.00;;;;;;2272410;61;1335;-83
2022/04/27 10:15:06;35025.00;0.12;61.28;0.00;0.00;0.62;;;;;18.40;1.00;;;;;;2272570;61;1023;-87
2022/04/27 10:17:34;128455.00;0.43;222.66;0.00;0.00;0.62;;;;;18.60;1.00;;;;;;2272462;61;957;-85
2022/04/27 10:20:01;0.00;0.00;0.62;0.00;0.00;0.62;;;;;18.20;1.00;;;;;;2272417;61;1407;-87
2022/04/27 10:22:30;213709.00;0.71;369.52;10566.00;0.04;18.93;;;;;17.00;1.00;;;;;;2272484;61;1927;-86
2022/04/27 10:25:05;0.00;0.00;0.62;0.00;0.00;0.62;;;;;16.20;1.00;;;;;;2272443;61;1150;-87
2022/04/27 10:27:37;137459.00;0.46;238.19;0.00;0.00;0.62;;;;;16.10;1.00;;;;;;2272442;61;1425;-86
2022/04/27 10:30:07;33481.00;0.11;58.61;0.00;0.00;0.62;;;;;16.00;1.00;;;;;;2272368;61;1549;-86
2022/04/27 10:32:44;0.00;0.00;0.62;0.00;0.00;0.62;;;;;16.30;1.00;;;;;;2272467;61;1106;-86
2022/04/27 10:35:21;0.00;0.00;0.62;0.00;0.00;0.62;;;;;16.10;1.00;;;;;;2272381;61;1727;-88
2022/04/27 10:37:51;287470.00;0.96;496.38;13714.00;0.05;24.38;;;;;16.00;1.00;;;;;;2272499;61;992;-88
2022/04/27 10:40:33;913155.00;3.04;1579.24;88135.00;0.29;153.09;;;;;16.10;1.00;;;;;;2272342;61;1930;-88
2022/04/27 10:43:09;23441.00;0.08;41.23;0.00;0.00;0.62;;;;;17.10;1.00;;;;;;2272433;61;1104;-88
2022/04/27 10:45:37;533274.00;1.78;919.13;61590.00;0.21;107.23;;;;;17.70;1.00;;;;;;2272325;61;1125;-86
2022/04/27 10:48:07;804770.00;2.68;1389.44;89908.00;0.30;156.15;;;;;17.80;1.00;;;;;;2272357;61;1044;-88
2022/04/27 10:50:35;713244.00;2.38;1230.21;73289.00;0.24;127.44;;;;;17.30;1.00;;;;;;2272328;61;1395;-88
2022/04/27 10:53:20;1088877.00;3.63;1890.54;152941.00;0.51;264.88;;;;;16.50;1.00;;;;;;2272342;61;1059;-87
2022/04/27 10:55:54;1222223.00;4.07;2130.45;108414.00;0.36;188.09;;;;;16.40;1.00;;;;;;2272380;61;1756;-88
2022/04/27 10:58:33;530981.00;1.77;915.18;65507.00;0.22;114.00;;;;;16.50;1.00;;;;;;2272342;61;1080;-88
2022/04/27 11:01:32;633544.00;2.11;1092.18;63075.00;0.21;109.79;;;;;16.60;1.00;;;;;;2272310;61;1926;-89
2022/04/27 11:04:11;14322.00;0.05;25.44;0.00;0.00;0.62;;;;;17.00;1.00;;;;;;2272287;61;1620;-85
2022/04/27 11:07:26;46790.00;0.16;81.63;0.00;0.00;0.62;;;;;17.00;1.00;;;;;;2272323;61;1111;-86
2022/04/27 11:10:12;42902.00;0.14;74.91;0.00;0.00;0.62;;;;;16.60;1.00;;;;;;2271893;61;1401;-87
2022/04/27 11:12:42;105431.00;0.35;182.95;0.00;0.00;0.62;;;;;15.90;1.00;;;;;;2272180;61;1085;-87
2022/04/27 11:15:11;40107.00;0.13;70.07;0.00;0.00;0.62;;;;;15.90;1.00;;;;;;2272223;61;1008;-89
2022/04/27 11:17:38;0.00;0.00;0.62;0.00;0.00;0.62;;;;;15.90;1.00;;;;;;2272260;61;1623;-85
2022/04/27 11:20:07;7611.00;0.03;13.81;0.00;0.00;0.62;;;;;15.80;1.00;;;;;;2272278;61;1689;-85
2022/04/27 11:22:39;110155.00;0.37;191.10;0.00;0.00;0.62;;;;;16.00;1.00;;;;;;2272190;61;1931;-86
2022/04/27 11:25:08;8575.00;0.03;15.48;0.00;0.00;0.62;;;;;16.40;1.00;;;;;;2272202;61;1308;-87
2022/04/27 11:27:36;0.00;0.00;0.62;0.00;0.00;0.62;;;;;17.00;1.00;;;;;;2272258;61;1677;-87
2022/04/27 11:30:08;0.00;0.00;0.62;0.00;0.00;0.62;;;;;17.10;1.00;;;;;;2272158;61;1492;-85
2022/04/27 11:32:38;0.00;0.00;0.62;0.00;0.00;0.62;;;;;17.10;1.00;;;;;;2272180;61;1130;-87
2022/04/27 11:35:05;38909.00;0.13;68.00;0.00;0.00;0.62;;;;;16.50;1.00;;;;;;2272163;61;975;-88
2022/04/27 11:37:36;89772.00;0.30;155.91;0.00;0.00;0.62;;;;;16.70;1.00;;;;;;2272216;61;1014;-86
2022/04/27 11:40:13;4508.00;0.02;8.43;0.00;0.00;0.62;;;;;16.70;1.00;;;;;;2272197;61;1568;-86
2022/04/27 11:42:44;0.00;0.00;0.62;0.00;0.00;0.62;;;;;17.50;1.00;;;;;;2272124;61;1950;-89
2022/04/27 11:45:18;175689.00;0.59;304.07;0.00;0.00;0.62;;;;;17.20;1.00;;;;;;2272246;61;1099;-88
2022/04/27 11:47:55;37320.00;0.12;65.25;0.00;0.00;0.62;;;;;17.40;1.00;;;;;;2272157;61;1585;-89
2022/04/27 11:50:22;33468.00;0.11;58.59;0.00;0.00;0.62;;;;;17.70;1.00;;;;;;2272155;61;2058;-87
2022/04/27 11:52:58;42811.00;0.14;74.75;0.00;0.00;0.62;;;;;18.20;1.00;;;;;;2272133;61;1619;-87
2022/04/27 11:55:25;97709.00;0.33;169.62;0.00;0.00;0.62;;;;;17.60;1.00;;;;;;2272148;61;1408;-87
2022/04/27 11:57:53;244461.00;0.81;422.42;0.00;0.00;0.62;;;;;17.40;1.00;;;;;;2272233;61;1604;-87
2022/04/27 12:00:23;158045.00;0.53;273.67;0.00;0.00;0.62;;;;;18.00;1.00;;;;;;2272206;61;1511;-87
2022/04/27 12:02:51;120043.00;0.40;208.16;0.00;0.00;0.62;;;;;18.40;1.00;;;;;;2272161;61;1943;-86
2022/04/27 12:05:18;0.00;0.00;0.62;0.00;0.00;0.62;;;;;18.20;1.00;;;;;;2272245;61;967;-86
2022/04/27 12:07:50;40606.00;0.14;70.94;0.00;0.00;0.62;;;;;18.20;1.00;;;;;;2272316;61;1017;-88
2022/04/27 12:10:17;9019.00;0.03;16.25;0.00;0.00;0.62;;;;;18.70;1.00;;;;;;2272195;61;1488;-87
2022/04/27 12:12:44;74895.00;0.25;130.22;0.00;0.00;0.62;;;;;18.70;1.00;;;;;;2272154;61;1041;-88
2022/04/27 12:15:13;193037.00;0.64;333.94;0.00;0.00;0.62;;;;;18.90;1.00;;;;;;2272126;61;1743;-88
2022/04/27 12:17:50;163841.00;0.55;283.66;0.00;0.00;0.62;;;;;17.40;1.00;;;;;;2272576;61;921;-86
2022/04/27 12:20:26;40562.00;0.14;70.86;0.00;0.00;0.62;;;;;16.70;1.00;;;;;;2272905;61;1449;-87
2022/04/27 12:22:55;660924.00;2.20;1139.54;34393.00;0.11;60.19;;;;;17.40;1.00;;;;;;2272820;61;2005;-88
2022/04/27 12:25:34;1045986.00;3.49;1814.09;195979.00;0.65;339.00;;;;;17.10;1.00;;;;;;2272925;61;1363;-88
2022/04/27 12:28:02;539036.00;1.80;929.06;54833.00;0.18;95.54;;;;;17.00;1.00;;;;;;2272854;61;1046;-86
2022/04/27 12:30:29;916420.00;3.05;1584.98;124414.00;0.41;215.70;;;;;17.10;1.00;;;;;;2272836;61;1310;-88
2022/04/27 12:32:59;1416591.00;4.72;2487.13;128706.00;0.43;223.10;;;;;17.40;1.00;;;;;;2272885;61;1609;-87
2022/04/27 12:38:18;248197.00;0.83;428.85;36118.00;0.12;63.17;;;;;18.20;1.00;;;;;;2272993;61;608;-87
2022/04/27 12:40:45;750567.00;2.50;1295.04;35991.00;0.12;62.95;;;;;18.90;1.00;;;;;;2272679;61;1418;-86
2022/04/27 12:43:14;993785.00;3.31;1721.47;132182.00;0.44;229.09;;;;;18.70;1.00;;;;;;2272707;61;2030;-86
2022/04/27 12:46:02;1174759.00;3.92;2044.65;113297.00;0.38;196.52;;;;;18.20;1.00;;;;;;2272765;61;1023;-88
2022/04/27 12:48:32;1084669.00;3.62;1883.03;136857.00;0.46;237.15;;;;;18.00;1.00;;;;;;2272803;61;1024;-86
2022/04/27 12:50:59;1116443.00;3.72;1939.85;88349.00;0.29;153.46;;;;;18.30;1.00;;;;;;2272786;61;1296;-86
2022/04/27 12:53:27;1482188.00;4.94;2609.65;173314.00;0.58;299.97;;;;;18.10;1.00;;;;;;2272793;61;955;-88
2022/04/27 12:56:09;545087.00;1.82;939.49;38344.00;0.13;67.02;;;;;18.00;1.00;;;;;;2272817;61;955;-88
2022/04/27 12:58:38;811301.00;2.70;1400.84;124818.00;0.42;216.39;;;;;17.60;1.00;;;;;;2272670;61;1704;-89
2022/04/27 13:01:06;506812.00;1.69;873.55;73343.00;0.24;127.54;;;;;17.40;1.00;;;;;;2272681;61;1919;-88
2022/04/27 13:03:35;802296.00;2.67;1385.13;24488.00;0.08;43.04;;;;;17.30;1.00;;;;;;2272790;61;972;-87
2022/04/27 13:06:02;556544.00;1.86;959.24;30819.00;0.10;54.00;;;;;17.20;1.00;;;;;;2272838;61;1180;-88
2022/04/27 13:08:29;1082225.00;3.61;1878.67;67826.00;0.23;118.00;;;;;17.20;1.00;;;;;;2272735;61;1012;-87
2022/04/27 13:13:42;698745.00;2.33;1205.06;33918.00;0.11;59.36;;;;;17.50;1.00;;;;;;2272827;61;794;-89
2022/04/27 13:16:09;1074583.00;3.58;1865.03;150704.00;0.50;261.02;;;;;17.20;1.00;;;;;;2272762;61;1543;-88
2022/04/27 13:18:37;1472803.00;4.91;2592.05;144716.00;0.48;250.70;;;;;16.50;1.00;;;;;;2272772;61;926;-88
2022/04/27 13:21:05;990354.00;3.30;1715.40;124262.00;0.41;215.43;;;;;16.20;1.00;;;;;;2272666;61;2000;-88
2022/04/27 13:23:32;1091995.00;3.64;1896.11;90238.00;0.30;156.72;;;;;16.30;1.00;;;;;;2272531;61;1073;-88
2022/04/27 13:25:59;792937.00;2.64;1368.81;97777.00;0.33;169.73;;;;;16.10;1.00;;;;;;2272648;61;1373;-88
2022/04/27 13:28:25;1073435.00;3.58;1862.98;115616.00;0.39;200.52;;;;;16.00;1.00;;;;;;2272632;61;1132;-86
2022/04/27 13:30:54;1143697.00;3.81;1988.75;213380.00;0.71;368.95;;;;;16.20;1.00;;;;;;2272543;61;2308;-88
2022/04/27 13:33:22;792340.00;2.64;1367.77;126604.00;0.42;219.47;;;;;16.90;1.00;;;;;;2272780;61;1051;-88
2022/04/27 13:35:51;629003.00;2.10;1084.33;78384.00;0.26;136.25;;;;;17.20;1.00;;;;;;2272692;61;1012;-90
2022/04/27 13:38:18;533610.00;1.78;919.71;81277.00;0.27;141.24;;;;;17.60;1.00;;;;;;2272733;61;1637;-87
2022/04/27 13:40:46;668053.00;2.23;1151.88;78234.00;0.26;135.99;;;;;17.80;1.00;;;;;;2272526;61;1629;-87
2022/04/27 13:43:14;588737.00;1.96;1014.78;102354.00;0.34;177.63;;;;;17.90;1.00;;;;;;2272577;61;1920;-87
2022/04/27 13:45:41;723734.00;2.41;1248.42;89436.00;0.30;155.33;;;;;18.20;1.00;;;;;;2272567;61;1069;-87
2022/04/27 13:48:08;646014.00;2.15;1113.74;80309.00;0.27;139.57;;;;;18.50;1.00;;;;;;2272696;61;1085;-86
2022/04/27 13:50:35;620124.00;2.07;1068.98;110315.00;0.37;191.37;;;;;19.10;1.00;;;;;;2278781;55;3811;-84
2022/04/27 13:53:04;1283762.00;4.28;2242.42;190180.00;0.63;329.02;;;;;19.00;1.00;;;;;;2280574;60;1208;-87
2022/04/27 13:55:32;1262509.00;4.21;2203.65;143554.00;0.48;248.70;;;;;19.40;1.00;;;;;;2280601;60;1070;-85
2022/04/27 13:58:00;467753.00;1.56;806.32;90101.00;0.30;156.48;;;;;19.30;1.00;;;;;;2280531;60;1180;-87
2022/04/27 14:00:27;813355.00;2.71;1404.42;142930.00;0.48;247.62;;;;;19.20;1.00;;;;;;2280586;60;1482;-86
2022/04/27 14:02:54;735941.00;2.45;1269.62;71717.00;0.24;124.73;;;;;19.20;1.00;;;;;;2280586;60;1931;-85
2022/04/27 14:05:22;764585.00;2.55;1319.43;97233.00;0.32;168.80;;;;;19.20;1.00;;;;;;2280761;60;1122;-86
2022/04/27 14:07:49;768145.00;2.56;1325.62;91111.00;0.30;158.23;;;;;19.00;1.00;;;;;;2280765;60;1036;-86
2022/04/27 14:10:18;525420.00;1.75;905.60;79033.00;0.26;137.37;;;;;18.90;1.00;;;;;;2280694;60;1384;-87
2022/04/27 14:15:39;143864592.00;479.55;120683856.00;50161.00;0.17;87.46;;;;;18.90;1.00;;;;;;2273615;60;1194;-86
2022/04/27 14:18:11;239019.00;0.80;413.06;0.00;0.00;0.62;;;;;19.40;1.00;;;;;;2280614;60;1475;-86
2022/04/27 14:20:40;596950.00;1.99;1028.95;59822.00;0.20;104.17;;;;;19.60;1.00;;;;;;2280643;60;2211;-87
2022/04/27 14:23:09;1270759.00;4.24;2218.69;129104.00;0.43;223.78;;;;;19.70;1.00;;;;;;2280542;60;2000;-86
2022/04/27 14:25:38;517957.00;1.73;892.75;0.00;0.00;0.62;;;;;19.80;1.00;;;;;;2280631;60;1071;-87
2022/04/27 14:28:06;402295.00;1.34;693.75;0.00;0.00;0.62;;;;;19.50;1.00;;;;;;2280790;60;1117;-88
2022/04/27 14:30:33;1041336.00;3.47;1805.82;115614.00;0.39;200.52;;;;;20.00;1.00;;;;;;2280667;60;1405;-89
2022/04/27 14:33:01;765262.00;2.55;1320.61;23569.00;0.08;41.45;;;;;19.70;1.00;;;;;;2280807;60;1014;-87
2022/04/27 14:35:28;588673.00;1.96;1014.67;1198.00;0.00;2.70;;;;;19.80;1.00;;;;;;2280629;60;1136;-86
2022/04/27 14:37:55;629122.00;2.10;1084.53;41072.00;0.14;71.74;;;;;19.70;1.00;;;;;;2280540;60;1399;-88
2022/04/27 14:40:23;751260.00;2.50;1296.25;56624.00;0.19;98.64;;;;;19.60;1.00;;;;;;2280235;60;1378;-87
2022/04/27 14:42:52;1214715.00;4.05;2116.85;54638.00;0.18;95.21;;;;;19.50;1.00;;;;;;2280623;60;1915;-86
2022/04/27 14:45:20;599706.00;2.00;1033.71;81389.00;0.27;141.44;;;;;19.60;1.00;;;;;;2280608;60;1127;-86
2022/04/27 14:47:47;850638.00;2.84;1469.58;168289.00;0.56;291.32;;;;;20.00;1.00;;;;;;2280489;60;2131;-86
2022/04/27 14:50:14;1045439.00;3.48;1813.12;78306.00;0.26;136.11;;;;;20.00;1.00;;;;;;2280450;60;1289;-87
2022/04/27 14:52:41;1013499.00;3.38;1756.39;165745.00;0.55;286.94;;;;;19.20;1.00;;;;;;2280434;60;1025;-87
2022/04/27 14:55:09;1353967.00;4.51;2371.22;156050.00;0.52;270.23;;;;;19.00;1.00;;;;;;2280474;60;1130;-88
2022/04/27 14:57:37;939090.00;3.13;1624.88;119944.00;0.40;207.99;;;;;19.50;1.00;;;;;;2280495;60;1097;-87
2022/04/27 15:00:08;1010029.00;3.37;1750.24;117879.00;0.39;204.42;;;;;19.60;1.00;;;;;;2280536;60;1375;-87
2022/04/27 15:02:36;920636.00;3.07;1592.39;138498.00;0.46;239.98;;;;;19.40;1.00;;;;;;2280423;60;2004;-89
2022/04/27 15:05:05;997172.00;3.32;1727.46;209134.00;0.70;361.64;;;;;18.80;1.00;;;;;;2280441;60;1125;-89
2022/04/27 15:07:32;659666.00;2.20;1137.36;77795.00;0.26;135.23;;;;;18.70;1.00;;;;;;2280369;60;1147;-87
2022/04/27 15:09:59;1180234.00;3.93;2054.52;190879.00;0.64;330.22;;;;;18.60;1.00;;;;;;2280520;60;1362;-89
2022/04/27 15:12:26;1312934.00;4.38;2295.80;138356.00;0.46;239.74;;;;;18.40;1.00;;;;;;2280520;60;1008;-88
2022/04/27 15:14:53;607443.00;2.02;1047.07;136482.00;0.45;236.51;;;;;17.70;1.00;;;;;;2280429;60;956;-87
2022/04/27 15:17:22;299634.00;1.00;517.29;75798.00;0.25;131.78;;;;;18.00;1.00;;;;;;2280441;60;1565;-87
2022/04/27 15:22:41;291956.00;0.97;504.09;83569.00;0.28;145.20;;;;;18.20;1.00;;;;;;2280409;60;1335;-90
2022/04/27 15:22:41;686700.00;2.29;1184.18;159291.00;0.53;275.82;;;;;17.60;1.00;;;;;;2280419;60;2024;-89
2022/04/27 15:25:09;215272.00;0.72;372.21;78531.00;0.26;136.50;;;;;17.20;1.00;;;;;;2280403;60;948;-88
2022/04/27 15:27:36;206807.00;0.69;357.64;54308.00;0.18;94.64;;;;;17.10;1.00;;;;;;2280520;60;923;-87
2022/04/27 15:30:03;257491.00;0.86;444.83;82546.00;0.28;143.43;;;;;16.70;1.00;;;;;;2280420;60;1246;-88
2022/04/27 15:32:31;345376.00;1.15;595.91;74197.00;0.25;129.01;;;;;17.10;1.00;;;;;;2280385;60;1406;-88
2022/04/27 15:34:58;286216.00;0.95;494.22;80155.00;0.27;139.31;;;;;16.80;1.00;;;;;;2280362;60;1391;-88
2022/04/27 15:37:25;206296.00;0.69;356.76;84875.00;0.28;147.46;;;;;17.10;1.00;;;;;;2280432;60;1190;-88
2022/04/27 15:39:52;306323.00;1.02;528.79;76064.00;0.25;132.24;;;;;17.10;1.00;;;;;;2280272;60;1254;-89
2022/04/27 15:42:19;29636.00;0.10;51.95;0.00;0.00;0.62;;;;;17.40;1.00;;;;;;2280371;60;1907;-88
2022/04/27 15:44:46;104753.00;0.35;181.78;0.00;0.00;0.62;;;;;17.30;1.00;;;;;;2280490;60;1658;-89
2022/04/27 15:47:14;197613.00;0.66;341.81;0.00;0.00;0.62;;;;;17.40;1.00;;;;;;2280178;60;1463;-89
2022/04/27 15:49:42;325723.00;1.09;562.13;0.00;0.00;0.62;;;;;17.50;1.00;;;;;;2280247;60;1693;-88
2022/04/27 15:52:10;193592.00;0.65;334.89;0.00;0.00;0.62;;;;;17.60;1.00;;;;;;2280178;60;1039;-84
2022/04/27 15:54:37;37988.00;0.13;66.41;0.00;0.00;0.62;;;;;17.90;1.00;;;;;;2280175;60;1454;-87
2022/04/27 16:02:02;669452.00;2.23;1154.30;0.00;0.00;0.62;;;;;18.00;1.00;;;;;;2286118;55;3707;-88
2022/04/27 16:04:29;119286.00;0.40;206.85;0.00;0.00;0.62;;;;;17.90;1.00;;;;;;2276228;61;912;-89
2022/04/27 16:09:29;774794.00;2.58;1337.20;0.00;0.00;0.62;;;;;17.00;1.00;;;;;;1973509;40;3645;-88
2022/04/27 16:11:56;198532.00;0.66;343.40;0.00;0.00;0.62;;;;;16.90;1.00;;;;;;2276115;61;937;-87
2022/04/27 16:14:26;176632.00;0.59;305.69;0.00;0.00;0.62;;;;;17.20;1.00;;;;;;2276229;61;927;-88
2022/04/27 16:16:53;0.00;0.00;0.62;0.00;0.00;0.62;;;;;17.50;1.00;;;;;;2276172;61;1875;-89
2022/04/27 16:19:20;202501.00;0.68;350.23;0.00;0.00;0.62;;;;;17.40;1.00;;;;;;2276065;61;1425;-87
2022/04/27 16:24:33;0.00;0.00;0.62;0.00;0.00;0.62;;;;;18.00;1.00;;;;;;2276301;61;750;-88
2022/04/27 16:27:06;265762.00;0.89;459.06;16156.00;0.05;28.61;;;;;18.30;1.00;;;;;;2276123;61;1639;-86
2022/04/27 16:29:33;43233.00;0.14;75.48;0.00;0.00;0.62;;;;;18.40;1.00;;;;;;2276071;61;1406;-87
2022/04/27 16:32:04;26280.00;0.09;46.14;0.00;0.00;0.62;;;;;18.50;1.00;;;;;;2276225;61;1144;-86
2022/04/27 16:34:32;601430.00;2.00;1036.69;73359.00;0.24;127.56;;;;;18.60;1.00;;;;;;2276289;61;1069;-88
2022/04/27 16:36:58;357574.00;1.19;616.88;15253.00;0.05;27.05;;;;;18.60;1.00;;;;;;2276126;61;1640;-85
2022/04/27 16:39:26;178259.00;0.59;308.49;0.00;0.00;0.62;;;;;18.50;1.00;;;;;;2276302;61;1252;-89
2022/04/27 16:44:27;305959.00;1.02;528.16;0.00;0.00;0.62;;;;;19.00;1.00;;;;;;2278127;61;1961;-89